Time;durP1;ratioP1;P1;durP2;ratioP2;P2;SDS_P1;SDS_P2;PMS_P1;PMS_P2;Temp;Humidity;BMP_temperature;BMP_pressure;BME280_temperature;BME280_humidity;BME280_pressure;Samples;Min_cycle;Max_cycle;Signal;HPM_P1;HPM_P2
2022/03/08 00:00:18;;;;;;;22.58;11.23;;;;;;;2.44;40.99;100277.31;4448126;32;34911;-78
2022/03/08 00:02:46;;;;;;;21.95;11.15;;;;;;;2.52;40.83;100281.03;4444724;32;34350;-77
2022/03/08 00:05:14;;;;;;;21.58;10.48;;;;;;;2.47;40.82;100290.59;4459566;32;33762;-77
2022/03/08 00:07:46;;;;;;;24.80;11.93;;;;;;;2.63;40.80;100299.81;4453612;32;35134;-78
2022/03/08 00:10:16;;;;;;;23.80;10.80;;;;;;;2.64;40.71;100300.69;4441355;32;33487;-77
2022/03/08 00:12:52;;;;;;;21.65;11.10;;;;;;;2.68;40.54;100283.12;4441031;32;33935;-77
2022/03/08 00:15:25;;;;;;;23.40;10.80;;;;;;;2.77;40.36;100286.84;4441228;32;33355;-77
2022/03/08 00:17:54;;;;;;;22.23;11.68;;;;;;;2.57;40.66;100288.72;4441501;32;34653;-77
2022/03/08 00:20:27;;;;;;;21.35;10.32;;;;;;;2.56;40.89;100290.59;4440922;32;31710;-77
2022/03/08 00:23:01;;;;;;;18.15;9.73;;;;;;;2.76;40.62;100291.41;4440911;32;34258;-77
2022/03/08 00:25:35;;;;;;;22.70;12.05;;;;;;;2.90;40.05;100285.53;4440817;32;32952;-77
2022/03/08 00:28:03;;;;;;;25.23;12.50;;;;;;;3.17;39.77;100286.62;4454679;32;34448;-78
2022/03/08 00:30:32;;;;;;;21.30;10.43;;;;;;;2.84;40.16;100274.41;4440992;32;33222;-77
2022/03/08 00:33:04;;;;;;;20.00;10.30;;;;;;;2.61;41.00;100284.72;4453360;32;34117;-77
2022/03/08 00:35:35;;;;;;;22.23;10.95;;;;;;;2.77;40.79;100281.41;4440939;32;32053;-77
2022/03/08 00:38:06;;;;;;;21.17;10.55;;;;;;;2.59;41.12;100281.31;4440733;32;32804;-77
2022/03/08 00:40:34;;;;;;;26.83;11.32;;;;;;;2.88;40.54;100276.69;4453518;32;34839;-77
2022/03/08 00:43:04;;;;;;;19.83;10.63;;;;;;;2.80;40.71;100287.41;4440472;32;33153;-77
2022/03/08 00:45:34;;;;;;;21.75;11.20;;;;;;;2.72;41.11;100276.44;4453484;32;33692;-77
2022/03/08 00:48:05;;;;;;;19.83;9.60;;;;;;;2.53;41.54;100279.19;4440834;32;34204;-77
2022/03/08 00:50:33;;;;;;;21.90;11.25;;;;;;;2.78;41.07;100270.44;4453644;32;34744;-77
2022/03/08 00:53:03;;;;;;;19.87;10.55;;;;;;;2.85;40.93;100274.28;4440986;32;34991;-77
2022/03/08 00:55:35;;;;;;;19.25;9.63;;;;;;;3.00;40.69;100271.97;4452797;32;33667;-77
2022/03/08 00:58:04;;;;;;;20.83;10.00;;;;;;;2.88;40.96;100282.13;4452915;32;35303;-77
2022/03/08 01:00:36;;;;;;;17.30;9.93;;;;;;;3.04;40.89;100273.38;4465388;32;34669;-77
2022/03/08 01:03:09;;;;;;;19.67;9.57;;;;;;;3.00;41.06;100274.69;4456341;32;34432;-77
2022/03/08 01:05:43;;;;;;;20.48;10.32;;;;;;;3.18;40.69;100274.78;4443799;32;33702;-77
2022/03/08 01:08:16;;;;;;;19.17;9.85;;;;;;;2.96;41.17;100271.41;4442704;32;32986;-77
2022/03/08 01:10:49;;;;;;;17.70;9.32;;;;;;;3.11;41.18;100273.66;4443227;32;34702;-77
2022/03/08 01:13:17;;;;;;;15.85;8.40;;;;;;;3.18;40.87;100266.63;4455919;32;32086;-77
2022/03/08 01:15:49;;;;;;;20.17;9.00;;;;;;;3.30;40.70;100265.44;4443594;32;34327;-77
2022/03/08 01:18:20;;;;;;;16.20;9.13;;;;;;;3.22;40.93;100257.22;4443258;32;34538;-77
2022/03/08 01:20:47;;;;;;;18.05;9.02;;;;;;;3.19;40.97;100262.94;4443421;32;33932;-77
2022/03/08 01:23:18;;;;;;;17.25;9.32;;;;;;;3.01;41.44;100264.69;4443248;32;33480;-78
2022/03/08 01:25:47;;;;;;;19.35;9.23;;;;;;;3.07;41.23;100275.81;4443106;32;32412;-78
2022/03/08 01:28:18;;;;;;;18.92;9.18;;;;;;;3.02;41.50;100267.25;4456093;32;34442;-78
2022/03/08 01:30:54;;;;;;;19.08;9.40;;;;;;;3.13;41.24;100267.09;4455959;32;34789;-77
2022/03/08 01:33:26;;;;;;;15.30;9.18;;;;;;;2.90;41.79;100265.72;4443467;32;33040;-77
2022/03/08 01:35:58;;;;;;;16.62;9.23;;;;;;;3.00;41.80;100268.41;4442960;32;34398;-77
2022/03/08 01:38:29;;;;;;;23.58;10.15;;;;;;;3.01;41.85;100267.41;4441966;32;33088;-77
2022/03/08 01:41:00;;;;;;;18.65;9.50;;;;;;;2.95;41.83;100266.97;4442874;32;32472;-77
2022/03/08 01:43:32;;;;;;;16.75;9.80;;;;;;;3.03;41.83;100268.97;4442644;32;32227;-77
2022/03/08 01:46:02;;;;;;;16.67;8.93;;;;;;;2.93;41.97;100268.13;4454272;32;33671;-77
2022/03/08 01:48:34;;;;;;;19.30;10.05;;;;;;;3.07;41.65;100273.09;4455757;32;33727;-77
2022/03/08 01:51:04;;;;;;;19.52;9.63;;;;;;;2.97;41.96;100270.41;4442828;32;34224;-77
2022/03/08 01:53:40;;;;;;;18.65;9.80;;;;;;;2.94;42.17;100264.41;4442023;32;33374;-77
2022/03/08 01:56:11;;;;;;;20.02;10.05;;;;;;;2.89;42.23;100264.84;4429930;32;32232;-77
2022/03/08 01:58:39;;;;;;;17.95;9.80;;;;;;;3.00;42.03;100268.41;4455586;32;34285;-77
2022/03/08 02:01:12;;;;;;;19.08;10.07;;;;;;;2.91;42.15;100264.72;4455620;32;33929;-77
2022/03/08 02:03:46;;;;;;;19.25;10.43;;;;;;;2.75;42.58;100265.31;4442176;32;32048;-77
2022/03/08 02:06:18;;;;;;;16.98;10.02;;;;;;;2.96;42.29;100263.28;4443224;32;34015;-77
2022/03/08 02:08:51;;;;;;;18.48;10.30;;;;;;;2.97;42.32;100264.97;4455623;32;35352;-77
2022/03/08 02:11:21;;;;;;;19.27;9.90;;;;;;;2.99;42.42;100262.12;4429977;32;32382;-77
2022/03/08 02:13:55;;;;;;;19.30;10.23;;;;;;;2.88;42.43;100262.28;4442843;32;34211;-77
2022/03/08 02:16:23;;;;;;;21.42;10.15;;;;;;;2.78;42.66;100266.88;4442458;32;33622;-77
2022/03/08 02:18:54;;;;;;;18.02;9.90;;;;;;;2.82;42.54;100265.56;4442523;32;34095;-77
2022/03/08 02:21:26;;;;;;;19.13;10.27;;;;;;;2.73;42.66;100271.88;4442047;32;33893;-77
2022/03/08 02:23:56;;;;;;;16.75;9.63;;;;;;;2.70;42.95;100267.59;4455321;32;34296;-77
2022/03/08 02:26:29;;;;;;;18.35;10.30;;;;;;;2.60;42.94;100267.59;4455135;32;33871;-77
2022/03/08 02:29:00;;;;;;;20.65;10.50;;;;;;;2.49;43.37;100269.62;4429692;32;33213;-77
2022/03/08 02:31:30;;;;;;;17.23;10.00;;;;;;;2.39;43.49;100274.19;4442156;32;32574;-76
2022/03/08 02:34:00;;;;;;;19.92;11.27;;;;;;;2.44;43.53;100261.06;4454858;32;33745;-76
2022/03/08 02:36:33;;;;;;;25.33;11.23;;;;;;;2.28;43.90;100258.94;4442063;32;33240;-77
2022/03/08 02:39:06;;;;;;;21.33;10.50;;;;;;;2.40;43.60;100265.91;4443092;32;34709;-77
2022/03/08 02:41:34;;;;;;;17.70;9.10;;;;;;;2.50;43.53;100265.91;4455466;32;34046;-76
2022/03/08 02:44:02;;;;;;;17.15;9.20;;;;;;;2.38;43.94;100267.06;4455119;32;32941;-77
2022/03/08 02:46:33;;;;;;;19.35;10.95;;;;;;;2.45;43.64;100268.19;4442088;32;33230;-76
2022/03/08 02:49:01;;;;;;;20.17;10.27;;;;;;;2.36;44.02;100267.19;4441890;32;32999;-77
2022/03/08 02:51:31;;;;;;;19.73;10.87;;;;;;;2.48;43.95;100267.91;4441907;32;32776;-77
2022/03/08 02:54:01;;;;;;;20.83;10.50;;;;;;;2.47;43.94;100271.63;4441952;32;33782;-76
2022/03/08 02:56:32;;;;;;;18.83;9.68;;;;;;;2.58;43.91;100272.34;4455028;32;33636;-77
2022/03/08 02:59:00;;;;;;;18.07;10.30;;;;;;;2.41;44.19;100267.63;4444379;32;34382;-77
2022/03/08 03:01:27;;;;;;;22.75;11.10;;;;;;;2.48;43.91;100268.78;4470857;32;34874;-77
2022/03/08 03:03:58;;;;;;;18.80;10.18;;;;;;;2.34;44.19;100263.78;4457134;32;33547;-76
2022/03/08 03:06:26;;;;;;;23.02;10.93;;;;;;;2.28;44.52;100269.75;4444239;32;32268;-76
2022/03/08 03:08:53;;;;;;;19.80;10.32;;;;;;;2.35;44.42;100278.19;4431378;32;33993;-77
2022/03/08 03:11:23;;;;;;;18.80;10.40;;;;;;;2.34;44.50;100269.19;4431345;32;32071;-76
2022/03/08 03:13:53;;;;;;;20.17;10.02;;;;;;;2.44;44.40;100271.91;4444235;32;33711;-76
2022/03/08 03:16:23;;;;;;;19.40;11.83;;;;;;;2.39;44.50;100274.19;4456820;32;33675;-76
2022/03/08 03:18:56;;;;;;;21.33;10.70;;;;;;;2.28;44.82;100280.59;4443828;32;32863;-77
2022/03/08 03:21:24;;;;;;;21.33;9.88;;;;;;;2.31;44.57;100283.88;4456736;32;33765;-77
2022/03/08 03:23:52;;;;;;;17.95;10.23;;;;;;;2.22;45.03;100271.19;4443991;32;32994;-77
2022/03/08 03:26:20;;;;;;;20.83;10.80;;;;;;;2.09;45.37;100284.13;4456716;32;34027;-76
2022/03/08 03:28:47;;;;;;;21.75;11.90;;;;;;;2.11;45.21;100281.28;4456635;32;34963;-76
2022/03/08 03:31:17;;;;;;;18.87;10.30;;;;;;;2.02;45.35;100282.97;4456804;32;34003;-76
2022/03/08 03:33:45;;;;;;;19.73;10.67;;;;;;;1.93;45.69;100279.28;4456951;32;33587;-76
2022/03/08 03:36:16;;;;;;;20.10;11.55;;;;;;;1.81;46.03;100280.41;4443725;32;33866;-76
2022/03/08 03:38:44;;;;;;;22.27;10.43;;;;;;;1.57;46.67;100282.59;4443850;32;34615;-77
2022/03/08 03:41:11;;;;;;;21.27;10.97;;;;;;;1.72;46.06;100280.38;4443773;32;33884;-76
2022/03/08 03:43:39;;;;;;;19.33;9.83;;;;;;;1.62;46.52;100283.91;4444072;32;34218;-76
2022/03/08 03:46:12;;;;;;;20.45;10.75;;;;;;;1.64;46.58;100283.75;4443718;32;33455;-76
2022/03/08 03:48:47;;;;;;;21.87;11.83;;;;;;;1.67;46.54;100286.19;4457037;32;34532;-76
2022/03/08 03:51:18;;;;;;;22.45;11.73;;;;;;;1.68;46.76;100284.34;4444052;32;32407;-77
2022/03/08 03:53:49;;;;;;;18.12;10.55;;;;;;;1.42;47.39;100290.22;4456638;32;33392;-77
2022/03/08 03:56:16;;;;;;;23.95;12.30;;;;;;;1.63;46.79;100279.34;4443426;32;34736;-76
2022/03/08 03:58:47;;;;;;;19.47;11.30;;;;;;;1.47;47.30;100271.72;4456489;32;34537;-76
2022/03/08 04:01:15;;;;;;;22.75;11.80;;;;;;;1.54;47.17;100270.19;4456262;32;33934;-76
2022/03/08 04:03:46;;;;;;;24.87;12.10;;;;;;;1.79;46.59;100270.69;4456658;32;33485;-76
2022/03/08 04:06:17;;;;;;;23.57;12.60;;;;;;;1.67;46.94;100266.38;4443762;32;33518;-76
2022/03/08 04:08:48;;;;;;;23.53;11.40;;;;;;;1.78;46.81;100275.25;4443128;32;35187;-77
2022/03/08 04:11:18;;;;;;;19.73;11.40;;;;;;;1.74;46.82;100267.56;4443544;32;32730;-77
2022/03/08 04:13:46;;;;;;;20.40;11.73;;;;;;;1.80;46.78;100269.72;4442888;32;32177;-77
2022/03/08 04:16:14;;;;;;;19.40;11.07;;;;;;;1.92;46.72;100263.19;4443614;32;33898;-76
2022/03/08 04:18:44;;;;;;;23.42;12.13;;;;;;;1.84;46.78;100274.72;4443551;32;33050;-76
2022/03/08 04:21:12;;;;;;;24.50;11.87;;;;;;;1.81;46.91;100279.53;4443350;32;32578;-76
2022/03/08 04:23:40;;;;;;;24.77;13.20;;;;;;;1.82;47.00;100286.66;4456455;32;34370;-76
2022/03/08 04:26:10;;;;;;;24.12;12.00;;;;;;;1.80;46.92;100284.09;4443393;32;32244;-76
2022/03/08 04:28:38;;;;;;;23.50;12.47;;;;;;;1.69;47.16;100283.34;4456092;32;33093;-76
2022/03/08 04:31:05;;;;;;;23.33;12.52;;;;;;;1.68;47.33;100287.91;4443483;32;32509;-76
2022/03/08 04:33:33;;;;;;;26.23;12.40;;;;;;;1.75;47.29;100290.91;4443881;32;34376;-76
2022/03/08 04:36:01;;;;;;;22.33;12.13;;;;;;;1.75;47.05;100289.06;4456238;32;33601;-77
2022/03/08 04:38:29;;;;;;;25.15;13.07;;;;;;;1.75;47.07;100283.66;4443924;32;35160;-77
2022/03/08 04:41:02;;;;;;;24.65;12.85;;;;;;;1.64;47.19;100287.31;4456364;32;34691;-76
2022/03/08 04:43:32;;;;;;;20.85;12.37;;;;;;;1.71;47.27;100278.66;4456711;32;33583;-76
2022/03/08 04:45:59;;;;;;;22.37;12.47;;;;;;;1.75;47.42;100285.50;4443783;32;33682;-77
2022/03/08 04:48:31;;;;;;;22.67;12.50;;;;;;;1.85;47.08;100284.53;4456231;32;34484;-79
2022/03/08 04:51:02;;;;;;;19.70;11.25;;;;;;;1.88;47.33;100286.09;4443611;32;34852;-77
2022/03/08 04:53:30;;;;;;;23.27;11.80;;;;;;;1.69;47.53;100286.06;4456224;32;33332;-77
2022/03/08 04:55:57;;;;;;;24.92;12.88;;;;;;;1.70;47.42;100276.94;4443065;32;33661;-77
2022/03/08 04:58:25;;;;;;;26.65;12.82;;;;;;;1.69;47.36;100275.22;4456199;32;34482;-75
2022/03/08 05:00:55;;;;;;;29.73;15.48;;;;;;;1.73;48.96;100272.09;4443247;32;33853;-77
2022/03/08 05:03:23;;;;;;;22.77;12.27;;;;;;;1.69;58.68;100280.63;4443635;32;33637;-77
2022/03/08 05:05:51;;;;;;;24.20;12.82;;;;;;;1.86;51.40;100290.81;4456146;32;34377;-76
2022/03/08 05:08:19;;;;;;;20.70;11.80;;;;;;;1.76;49.25;100276.38;4456387;32;34466;-75
2022/03/08 05:10:49;;;;;;;21.30;12.40;;;;;;;1.78;48.44;100274.41;4455357;32;33874;-77
2022/03/08 05:13:19;;;;;;;23.97;12.80;;;;;;;1.76;49.34;100276.38;4443008;32;33348;-75
2022/03/08 05:15:52;;;;;;;25.33;12.48;;;;;;;1.83;49.33;100277.56;4455549;32;33264;-75
2022/03/08 05:18:20;;;;;;;23.92;12.63;;;;;;;1.71;48.48;100273.25;4454324;32;34184;-75
2022/03/08 05:20:47;;;;;;;24.10;12.98;;;;;;;1.88;47.54;100275.28;4441591;32;34123;-75
2022/03/08 05:23:15;;;;;;;23.62;12.35;;;;;;;1.79;47.44;100266.16;4443092;32;34275;-75
2022/03/08 05:25:45;;;;;;;23.00;11.48;;;;;;;1.57;47.91;100275.34;4469732;32;34529;-74
2022/03/08 05:28:17;;;;;;;24.37;13.03;;;;;;;1.65;47.56;100270.09;4469846;32;35234;-74
2022/03/08 05:30:45;;;;;;;22.40;11.90;;;;;;;1.83;58.91;100272.13;4469640;32;34934;-74
2022/03/08 05:33:13;;;;;;;22.08;12.02;;;;;;;2.12;54.17;100273.03;4469520;32;33542;-75
2022/03/08 05:36:02;;;;;;;22.42;12.35;;;;;;;1.97;50.92;100282.53;4457830;32;34689;-75
2022/03/08 05:38:30;;;;;;;20.08;11.93;;;;;;;1.82;48.90;100275.84;4456163;32;34343;-75
2022/03/08 05:40:59;;;;;;;26.52;12.98;;;;;;;1.73;48.26;100277.53;4455560;32;33038;-75
2022/03/08 05:43:27;;;;;;;26.30;13.97;;;;;;;1.43;48.83;100280.25;4443028;32;33612;-74
2022/03/08 05:45:55;;;;;;;25.27;13.43;;;;;;;1.52;48.76;100284.84;4455790;32;33671;-75
2022/03/08 05:48:23;;;;;;;25.90;14.00;;;;;;;1.45;48.74;100283.69;4455463;32;33829;-74
2022/03/08 05:50:51;;;;;;;28.03;15.13;;;;;;;1.43;48.93;100283.81;4469528;32;34264;-75
2022/03/08 05:53:18;;;;;;;31.05;14.63;;;;;;;1.41;48.92;100277.69;4455912;32;33330;-75
2022/03/08 05:55:48;;;;;;;28.13;14.80;;;;;;;1.97;67.09;100288.81;4455559;32;32807;-75
2022/03/08 05:58:16;;;;;;;26.13;14.23;;;;;;;2.00;59.67;100290.38;4469500;32;34207;-75
2022/03/08 06:00:44;;;;;;;29.47;15.10;;;;;;;1.90;53.11;100279.56;4455394;32;34117;-75
2022/03/08 06:03:11;;;;;;;24.37;14.23;;;;;;;1.95;50.31;100292.69;4455025;32;33291;-72
2022/03/08 06:05:39;;;;;;;27.93;14.23;;;;;;;1.83;49.15;100291.09;4455451;32;33392;-73
2022/03/08 06:08:07;;;;;;;26.97;13.00;;;;;;;1.88;48.67;100288.81;4442414;32;33905;-72
2022/03/08 06:10:38;;;;;;;29.17;16.10;;;;;;;2.02;58.38;100292.94;4464327;32;33923;-74
2022/03/08 06:13:05;;;;;;;26.62;14.87;;;;;;;2.60;59.70;100299.28;4462204;32;34492;-74
2022/03/08 06:15:32;;;;;;;31.73;15.43;;;;;;;2.51;51.75;100298.28;4466982;32;34511;-74
2022/03/08 06:18:00;;;;;;;25.53;13.20;;;;;;;2.58;49.49;100290.44;4453123;32;34304;-74
2022/03/08 06:20:29;;;;;;;26.58;14.52;;;;;;;2.61;48.06;100295.53;4467699;32;34430;-74
2022/03/08 06:22:57;;;;;;;25.60;14.03;;;;;;;2.75;47.51;100291.53;4465098;32;33651;-74
2022/03/08 06:25:25;;;;;;;27.85;13.95;;;;;;;2.64;47.58;100296.12;4439916;32;34638;-74
2022/03/08 06:27:53;;;;;;;28.50;14.20;;;;;;;2.62;47.63;100294.53;4452093;32;33050;-74
2022/03/08 06:30:23;;;;;;;25.60;14.68;;;;;;;3.00;47.03;100296.38;4452700;32;33817;-74
2022/03/08 06:32:53;;;;;;;24.77;13.77;;;;;;;2.98;47.01;100299.22;4441533;32;32375;-74
2022/03/08 06:35:23;;;;;;;22.80;14.00;;;;;;;3.03;47.08;100306.91;4453205;32;34474;-74
2022/03/08 06:37:57;;;;;;;26.40;14.07;;;;;;;3.15;46.86;100302.19;4452588;32;34410;-74
2022/03/08 06:40:24;;;;;;;27.48;14.27;;;;;;;3.14;46.92;100297.78;4453504;32;34206;-74
2022/03/08 06:42:52;;;;;;;27.23;14.98;;;;;;;3.14;47.27;100305.91;4453896;32;34419;-74
2022/03/08 06:45:19;;;;;;;28.87;15.15;;;;;;;3.53;47.25;100303.91;4441166;32;32445;-74
2022/03/08 06:47:48;;;;;;;29.30;15.20;;;;;;;3.95;46.55;100305.09;4441339;32;34318;-74
2022/03/08 06:50:18;;;;;;;25.08;15.80;;;;;;;4.08;45.52;100310.19;4454579;32;34767;-74
2022/03/08 06:52:46;;;;;;;25.27;15.30;;;;;;;4.51;44.81;100309.47;4454133;32;32993;-74
2022/03/08 06:55:16;;;;;;;24.55;14.27;;;;;;;5.03;43.97;100311.44;4428887;32;33313;-74
2022/03/08 06:57:44;;;;;;;26.08;15.13;;;;;;;5.35;43.32;100302.63;4454268;32;34953;-74
2022/03/08 07:04:14;;;;;;;27.80;15.27;;;;;;;5.89;42.13;100313.12;4455390;32;34469;-74
2022/03/08 07:06:50;;;;;;;26.55;15.23;;;;;;;6.19;41.44;100319.06;4454413;32;33737;-74
2022/03/08 07:09:18;;;;;;;25.75;14.18;;;;;;;6.35;41.09;100315.53;4454222;32;35093;-74
2022/03/08 07:11:46;;;;;;;24.65;14.73;;;;;;;6.35;40.62;100321.84;4455344;32;33949;-74
2022/03/08 07:14:15;;;;;;;27.08;13.85;;;;;;;6.48;40.48;100316.75;4441418;32;33635;-74
2022/03/08 07:16:44;;;;;;;24.10;14.55;;;;;;;6.58;40.38;100313.84;4441402;32;32300;-74
2022/03/08 07:19:13;;;;;;;23.95;14.05;;;;;;;6.83;39.88;100309.28;4454235;32;35125;-74
2022/03/08 07:21:45;;;;;;;24.87;13.68;;;;;;;6.76;39.85;100313.69;4441544;32;33599;-75
2022/03/08 07:24:14;;;;;;;31.37;13.98;;;;;;;6.83;39.37;100321.03;4454270;32;34167;-75
2022/03/08 07:26:42;;;;;;;24.05;13.38;;;;;;;6.19;40.20;100314.47;4441243;32;32248;-75
2022/03/08 07:29:15;;;;;;;23.80;14.25;;;;;;;7.12;39.32;100314.22;4442035;32;35223;-74
2022/03/08 07:31:43;;;;;;;22.15;13.20;;;;;;;7.75;38.36;100314.28;4454062;32;33702;-75
2022/03/08 07:34:14;;;;;;;24.98;13.90;;;;;;;8.31;37.01;100311.47;4441361;32;32264;-74
2022/03/08 07:36:44;;;;;;;20.23;13.00;;;;;;;8.76;36.37;100311.53;4441530;32;33789;-75
2022/03/08 07:39:12;;;;;;;22.20;12.88;;;;;;;9.04;35.91;100302.75;4453821;32;33974;-75
2022/03/08 07:41:40;;;;;;;24.55;12.85;;;;;;;9.00;34.86;100310.50;4428369;32;32889;-75
2022/03/08 07:44:07;;;;;;;26.27;13.90;;;;;;;9.29;34.95;100311.59;4453541;32;33474;-75
2022/03/08 07:46:36;;;;;;;23.00;14.00;;;;;;;9.34;34.12;100311.87;4454080;32;34385;-75
2022/03/08 07:49:03;;;;;;;24.45;12.90;;;;;;;9.41;34.03;100310.97;4455172;32;34399;-75
2022/03/08 07:51:49;;;;;;;19.25;12.65;;;;;;;9.56;34.57;100316.47;4432297;32;32416;-75
2022/03/08 07:54:18;;;;;;;21.50;13.27;;;;;;;9.55;33.89;100310.12;4454016;32;31852;-75
2022/03/08 07:56:45;;;;;;;20.30;13.00;;;;;;;9.56;34.16;100311.84;4453991;32;34431;-75
2022/03/08 07:59:16;;;;;;;21.58;12.55;;;;;;;9.77;34.00;100315.69;4454484;32;34438;-75
2022/03/08 08:01:44;;;;;;;17.90;11.35;;;;;;;9.76;32.38;100309.38;4456819;32;34874;-75
2022/03/08 08:04:12;;;;;;;22.55;12.63;;;;;;;9.83;32.97;100314.94;4444076;32;34248;-75
2022/03/08 08:06:39;;;;;;;22.00;12.10;;;;;;;9.62;33.60;100310.22;4443747;32;32373;-75
2022/03/08 08:09:07;;;;;;;21.50;11.85;;;;;;;9.43;33.40;100308.88;4443861;32;35075;-75
2022/03/08 08:11:35;;;;;;;22.48;12.48;;;;;;;9.50;33.99;100298.88;4466328;32;34356;-75
2022/03/08 08:14:08;;;;;;;24.40;12.75;;;;;;;9.06;34.55;100311.66;4469337;32;34292;-75
2022/03/08 08:16:35;;;;;;;20.67;11.88;;;;;;;9.33;34.57;100304.69;4469383;32;33988;-75
2022/03/08 08:19:03;;;;;;;22.02;13.02;;;;;;;9.80;33.27;100307.94;4456582;32;35195;-75
2022/03/08 08:21:31;;;;;;;21.27;12.73;;;;;;;10.09;33.53;100298.88;4468993;32;33945;-75
2022/03/08 08:24:00;;;;;;;20.37;11.60;;;;;;;10.61;32.64;100306.06;4469519;32;34100;-76
2022/03/08 08:26:29;;;;;;;18.55;11.12;;;;;;;10.41;31.52;100308.56;4470009;32;34644;-76
2022/03/08 08:28:56;;;;;;;23.17;11.43;;;;;;;10.58;31.34;100306.44;4456125;32;34458;-75
2022/03/08 08:31:26;;;;;;;16.55;11.15;;;;;;;10.96;31.60;100295.22;4458711;32;34151;-76
2022/03/08 08:33:55;;;;;;;18.50;10.77;;;;;;;11.24;31.23;100293.34;4443573;32;33456;-75
2022/03/08 08:36:22;;;;;;;19.58;11.80;;;;;;;11.53;30.97;100298.66;4453976;32;33226;-75
2022/03/08 08:38:50;;;;;;;19.50;11.12;;;;;;;11.68;30.30;100295.81;4443526;32;35072;-75
2022/03/08 08:41:18;;;;;;;17.50;11.30;;;;;;;11.70;30.40;100290.91;4443205;32;33564;-75
2022/03/08 08:43:49;;;;;;;21.08;12.73;;;;;;;11.75;29.76;100295.81;4465933;32;33271;-76
2022/03/08 08:46:19;;;;;;;21.52;11.73;;;;;;;12.13;29.41;100294.37;4455826;32;33507;-76
2022/03/08 08:48:47;;;;;;;15.98;9.90;;;;;;;12.25;29.08;100296.56;4468595;32;34664;-75
2022/03/08 08:51:14;;;;;;;17.80;10.98;;;;;;;12.40;28.76;100288.97;4468864;32;32540;-75
2022/03/08 08:53:42;;;;;;;18.08;11.63;;;;;;;12.70;28.56;100286.75;4456079;32;34325;-75
2022/03/08 08:56:09;;;;;;;52.25;25.20;;;;;;;12.71;28.69;100286.53;4468870;32;33800;-76
2022/03/08 08:58:37;;;;;;;41.83;21.42;;;;;;;12.80;28.63;100289.94;4455674;32;33971;-76
2022/03/08 09:01:05;;;;;;;20.85;11.80;;;;;;;13.05;28.11;100287.41;4455886;32;34989;-76
2022/03/08 09:03:33;;;;;;;17.73;10.40;;;;;;;13.07;26.95;100285.28;4468899;32;33580;-76
2022/03/08 09:06:01;;;;;;;17.85;10.52;;;;;;;13.30;26.67;100273.88;4456054;32;33786;-76
2022/03/08 09:08:29;;;;;;;16.87;10.45;;;;;;;13.57;26.69;100274.72;4455598;32;32913;-76
2022/03/08 09:10:59;;;;;;;19.65;11.65;;;;;;;13.84;27.42;100273.59;4468767;32;34949;-76
2022/03/08 09:13:27;;;;;;;34.13;19.52;;;;;;;14.10;27.10;100265.25;4456032;32;31886;-76
2022/03/08 09:15:55;;;;;;;24.63;19.15;;;;;;;13.86;25.42;100260.44;4468747;32;34460;-76
2022/03/08 09:18:23;;;;;;;21.95;13.32;;;;;;;13.44;25.42;100268.16;4455997;32;35053;-75
2022/03/08 09:20:51;;;;;;;15.98;10.43;;;;;;;13.50;25.60;100267.31;4468713;32;34611;-76
2022/03/08 09:23:19;;;;;;;18.20;10.15;;;;;;;13.88;25.40;100265.72;4468705;32;33111;-76
2022/03/08 09:25:49;;;;;;;14.87;10.02;;;;;;;13.97;25.38;100269.94;4455655;32;32147;-76
2022/03/08 09:28:16;;;;;;;14.85;8.98;;;;;;;14.00;24.75;100270.38;4468474;32;33064;-76
2022/03/08 09:30:46;;;;;;;13.90;8.77;;;;;;;13.92;24.40;100267.84;4455931;32;33874;-76
2022/03/08 09:33:14;;;;;;;10.45;6.68;;;;;;;14.53;23.93;100266.56;4455984;32;31956;-76
2022/03/08 09:35:45;;;;;;;11.98;6.37;;;;;;;14.48;23.14;100256.16;4456187;32;33744;-76
2022/03/08 09:38:13;;;;;;;13.30;6.97;;;;;;;14.78;22.99;100262.78;4455609;32;33928;-76
2022/03/08 09:40:43;;;;;;;11.02;6.30;;;;;;;14.69;22.98;100261.34;4468070;32;32525;-76
2022/03/08 09:43:12;;;;;;;10.77;6.75;;;;;;;14.83;22.78;100259.34;4455935;32;33339;-76
2022/03/08 09:45:39;;;;;;;14.25;8.55;;;;;;;14.99;22.59;100252.41;4455731;32;33843;-76
2022/03/08 09:48:07;;;;;;;22.30;11.98;;;;;;;14.87;22.05;100260.59;4455260;32;34172;-76
2022/03/08 09:50:37;;;;;;;14.10;7.90;;;;;;;14.75;22.18;100268.75;4468593;32;34160;-76
2022/03/08 09:53:05;;;;;;;11.43;5.82;;;;;;;14.43;21.76;100265.09;4455469;32;34449;-76
2022/03/08 09:55:32;;;;;;;10.43;5.43;;;;;;;14.85;21.46;100257.22;4455508;32;32645;-76
2022/03/08 09:58:00;;;;;;;13.05;7.75;;;;;;;15.59;20.67;100263.87;4455407;32;32887;-77
2022/03/08 10:00:28;;;;;;;12.27;7.47;;;;;;;15.62;20.58;100257.84;4469320;32;33765;-77
2022/03/08 10:02:57;;;;;;;15.68;7.18;;;;;;;14.69;22.20;100263.28;4455196;32;33220;-76
2022/03/08 10:05:27;;;;;;;11.52;6.82;;;;;;;14.27;22.38;100270.28;4469210;32;32323;-76
2022/03/08 10:08:23;;;;;;;10.73;6.68;;;;;;;14.65;22.05;100262.03;4473275;32;34214;-76
2022/03/08 10:10:58;;;;;;;12.98;7.70;;;;;;;15.00;21.58;100259.66;4471715;32;33888;-76
2022/03/08 10:13:46;;;;;;;12.05;7.50;;;;;;;14.87;21.55;100257.00;4462696;32;33991;-76
2022/03/08 10:16:16;;;;;;;16.25;9.48;;;;;;;14.93;22.68;100265.25;4473277;32;33849;-76
2022/03/08 10:18:49;;;;;;;17.25;8.63;;;;;;;14.44;23.46;100265.94;4460668;32;33045;-76
2022/03/08 10:21:40;;;;;;;15.00;7.82;;;;;;;15.05;23.67;100263.44;4460357;32;33539;-76
2022/03/08 10:24:22;;;;;;;14.23;8.63;;;;;;;15.39;22.45;100270.38;4460427;32;32178;-76
2022/03/08 10:27:02;;;;;;;13.00;8.10;;;;;;;15.31;22.38;100262.38;4461117;32;33655;-76
2022/03/08 10:29:36;;;;;;;13.13;7.78;;;;;;;15.20;21.38;100274.16;4460339;32;34530;-76
2022/03/08 10:32:16;;;;;;;10.32;6.00;;;;;;;15.45;20.67;100263.97;4473429;32;34100;-76
2022/03/08 10:34:46;;;;;;;13.13;7.30;;;;;;;15.24;20.87;100267.13;4460540;32;32054;-76
2022/03/08 10:37:19;;;;;;;12.80;7.87;;;;;;;15.16;21.09;100264.63;4460557;32;34510;-76
2022/03/08 10:39:58;;;;;;;11.85;7.78;;;;;;;15.29;20.99;100255.38;4473000;32;34315;-76
2022/03/08 10:42:27;;;;;;;13.38;6.62;;;;;;;15.53;20.23;100265.59;4473008;32;34150;-76
2022/03/08 10:45:03;;;;;;;10.73;6.35;;;;;;;15.65;20.84;100257.37;4473104;32;33664;-76
2022/03/08 10:47:45;;;;;;;10.57;6.12;;;;;;;15.92;19.93;100253.28;4474135;32;34692;-76
2022/03/08 10:50:15;;;;;;;9.45;5.97;;;;;;;15.72;19.77;100255.41;4460475;32;35256;-76
2022/03/08 10:52:45;;;;;;;9.77;5.68;;;;;;;15.94;19.72;100244.75;4472815;32;34008;-76
2022/03/08 10:55:16;;;;;;;12.25;5.80;;;;;;;16.25;19.90;100244.56;4440810;32;205226;-77
2022/03/08 10:57:50;;;;;;;11.27;6.65;;;;;;;16.73;19.62;100249.28;4460635;32;34578;-76
2022/03/08 11:00:20;;;;;;;13.18;6.07;;;;;;;16.20;19.29;100241.66;4472727;32;34478;-76
2022/03/08 11:02:55;;;;;;;14.35;6.85;;;;;;;16.29;20.30;100244.94;4460008;32;32387;-76
2022/03/08 11:05:26;;;;;;;10.73;6.12;;;;;;;16.38;19.79;100246.31;4473727;32;33608;-76
2022/03/08 11:07:57;;;;;;;10.88;6.60;;;;;;;16.12;19.35;100247.50;4472706;32;33724;-76
2022/03/08 11:10:25;;;;;;;12.25;7.20;;;;;;;16.52;19.12;100242.28;4472678;32;35316;-76
2022/03/08 11:12:56;;;;;;;11.45;6.50;;;;;;;15.73;19.85;100246.03;4459681;32;33519;-76
2022/03/08 11:15:25;;;;;;;10.32;6.68;;;;;;;15.68;19.80;100249.47;4473777;32;33665;-76
2022/03/08 11:17:54;;;;;;;8.73;5.90;;;;;;;14.98;20.24;100242.44;4471211;32;34428;-76
2022/03/08 11:20:24;;;;;;;9.80;6.32;;;;;;;15.45;19.46;100241.81;4469795;32;34346;-76
2022/03/08 11:22:54;;;;;;;10.52;5.85;;;;;;;15.49;19.41;100234.75;4470934;32;33642;-76
2022/03/08 11:25:25;;;;;;;10.25;6.20;;;;;;;14.48;19.91;100234.06;4456985;32;31698;-76
2022/03/08 11:28:15;;;;;;;12.37;5.85;;;;;;;14.19;21.21;100229.97;4459299;32;33773;-76
2022/03/08 11:30:51;;;;;;;64.20;41.65;;;;;;;13.63;21.92;100233.34;4456940;32;34643;-74
2022/03/08 11:33:41;;;;;;;82.35;49.83;;;;;;;13.16;22.09;100240.81;4469660;32;34112;-75